sensor_id;sensor_type;location;lat;lon;timestamp;P1;durP1;ratioP1;P2;durP2;ratioP2
59468;SDS011;45277;52.768;18.262;2023-09-08T00:00:01;20.40;;;15.70;;
59468;SDS011;45277;52.768;18.262;2023-09-08T00:01:33;19.30;;;15.40;;
59468;SDS011;45277;52.768;18.262;2023-09-08T00:03:04;20.23;;;15.02;;
59468;SDS011;45277;52.768;18.262;2023-09-08T00:04:36;20.60;;;15.00;;
59468;SDS011;45277;52.768;18.262;2023-09-08T00:06:07;17.50;;;14.43;;
59468;SDS011;45277;52.768;18.262;2023-09-08T00:07:38;19.63;;;15.48;;
59468;SDS011;45277;52.768;18.262;2023-09-08T00:09:10;18.95;;;14.70;;
59468;SDS011;45277;52.768;18.262;2023-09-08T00:10:41;21.15;;;15.50;;
59468;SDS011;45277;52.768;18.262;2023-09-08T00:12:13;22.95;;;15.80;;
59468;SDS011;45277;52.768;18.262;2023-09-08T00:13:44;18.15;;;15.45;;
59468;SDS011;45277;52.768;18.262;2023-09-08T00:15:15;19.42;;;15.00;;
59468;SDS011;45277;52.768;18.262;2023-09-08T00:16:47;24.50;;;16.42;;
59468;SDS011;45277;52.768;18.262;2023-09-08T00:18:18;19.48;;;15.25;;
59468;SDS011;45277;52.768;18.262;2023-09-08T00:19:50;24.13;;;16.60;;
59468;SDS011;45277;52.768;18.262;2023-09-08T00:21:21;21.85;;;16.40;;
59468;SDS011;45277;52.768;18.262;2023-09-08T00:22:52;19.20;;;15.13;;
59468;SDS011;45277;52.768;18.262;2023-09-08T00:24:24;21.00;;;15.70;;
59468;SDS011;45277;52.768;18.262;2023-09-08T00:25:55;18.42;;;14.63;;
59468;SDS011;45277;52.768;18.262;2023-09-08T00:27:27;19.02;;;15.02;;
59468;SDS011;45277;52.768;18.262;2023-09-08T00:28:59;25.17;;;16.00;;
59468;SDS011;45277;52.768;18.262;2023-09-08T00:30:30;19.33;;;15.98;;
59468;SDS011;45277;52.768;18.262;2023-09-08T00:32:01;24.55;;;15.63;;
59468;SDS011;45277;52.768;18.262;2023-09-08T00:33:33;20.48;;;16.60;;
59468;SDS011;45277;52.768;18.262;2023-09-08T00:35:07;19.20;;;16.42;;
59468;SDS011;45277;52.768;18.262;2023-09-08T00:36:41;20.55;;;15.07;;
59468;SDS011;45277;52.768;18.262;2023-09-08T00:38:13;21.63;;;16.52;;
59468;SDS011;45277;52.768;18.262;2023-09-08T00:39:44;20.65;;;16.08;;
59468;SDS011;45277;52.768;18.262;2023-09-08T00:41:15;24.80;;;17.27;;
59468;SDS011;45277;52.768;18.262;2023-09-08T00:42:47;20.45;;;17.25;;
59468;SDS011;45277;52.768;18.262;2023-09-08T00:44:18;20.75;;;16.05;;
59468;SDS011;45277;52.768;18.262;2023-09-08T00:45:50;20.63;;;15.90;;
59468;SDS011;45277;52.768;18.262;2023-09-08T00:47:22;20.73;;;16.35;;
59468;SDS011;45277;52.768;18.262;2023-09-08T00:48:53;21.75;;;17.48;;
59468;SDS011;45277;52.768;18.262;2023-09-08T00:50:26;21.95;;;16.27;;
59468;SDS011;45277;52.768;18.262;2023-09-08T00:51:58;22.25;;;16.48;;
59468;SDS011;45277;52.768;18.262;2023-09-08T00:53:29;21.77;;;16.70;;
59468;SDS011;45277;52.768;18.262;2023-09-08T00:55:01;20.80;;;17.67;;
59468;SDS011;45277;52.768;18.262;2023-09-08T00:56:32;22.75;;;17.33;;
59468;SDS011;45277;52.768;18.262;2023-09-08T00:58:05;22.75;;;18.15;;
59468;SDS011;45277;52.768;18.262;2023-09-08T00:59:36;21.48;;;18.52;;
59468;SDS011;45277;52.768;18.262;2023-09-08T01:01:09;25.20;;;18.63;;
59468;SDS011;45277;52.768;18.262;2023-09-08T01:02:40;23.40;;;17.70;;
59468;SDS011;45277;52.768;18.262;2023-09-08T01:04:11;24.88;;;18.60;;
59468;SDS011;45277;52.768;18.262;2023-09-08T01:05:43;22.85;;;17.90;;
59468;SDS011;45277;52.768;18.262;2023-09-08T01:07:17;22.83;;;17.80;;
59468;SDS011;45277;52.768;18.262;2023-09-08T01:08:51;20.38;;;16.58;;
59468;SDS011;45277;52.768;18.262;2023-09-08T01:10:23;22.50;;;17.33;;
59468;SDS011;45277;52.768;18.262;2023-09-08T01:11:55;23.48;;;18.08;;
59468;SDS011;45277;52.768;18.262;2023-09-08T01:13:31;24.10;;;18.42;;
59468;SDS011;45277;52.768;18.262;2023-09-08T01:15:03;24.45;;;18.20;;
59468;SDS011;45277;52.768;18.262;2023-09-08T01:16:38;24.85;;;17.95;;
59468;SDS011;45277;52.768;18.262;2023-09-08T01:18:10;23.35;;;17.95;;
59468;SDS011;45277;52.768;18.262;2023-09-08T01:19:42;27.33;;;17.38;;
59468;SDS011;45277;52.768;18.262;2023-09-08T01:21:42;25.02;;;18.77;;
59468;SDS011;45277;52.768;18.262;2023-09-08T01:23:21;23.65;;;18.27;;
59468;SDS011;45277;52.768;18.262;2023-09-08T01:26:49;23.92;;;18.52;;
59468;SDS011;45277;52.768;18.262;2023-09-08T01:28:21;24.02;;;18.65;;
59468;SDS011;45277;52.768;18.262;2023-09-08T01:29:54;26.80;;;19.25;;
59468;SDS011;45277;52.768;18.262;2023-09-08T01:31:26;24.38;;;18.88;;
59468;SDS011;45277;52.768;18.262;2023-09-08T01:32:57;26.30;;;19.65;;
59468;SDS011;45277;52.768;18.262;2023-09-08T01:34:30;27.92;;;19.67;;
59468;SDS011;45277;52.768;18.262;2023-09-08T01:36:01;23.90;;;18.67;;
59468;SDS011;45277;52.768;18.262;2023-09-08T01:37:33;24.98;;;20.15;;
59468;SDS011;45277;52.768;18.262;2023-09-08T01:39:04;22.90;;;19.10;;
59468;SDS011;45277;52.768;18.262;2023-09-08T01:40:36;24.95;;;19.27;;
59468;SDS011;45277;52.768;18.262;2023-09-08T01:42:07;24.52;;;18.23;;
59468;SDS011;45277;52.768;18.262;2023-09-08T01:43:39;23.38;;;19.30;;
59468;SDS011;45277;52.768;18.262;2023-09-08T01:45:10;21.85;;;17.83;;
59468;SDS011;45277;52.768;18.262;2023-09-08T01:46:41;22.77;;;18.02;;
59468;SDS011;45277;52.768;18.262;2023-09-08T01:48:13;24.52;;;18.75;;
59468;SDS011;45277;52.768;18.262;2023-09-08T01:49:44;25.02;;;19.08;;
59468;SDS011;45277;52.768;18.262;2023-09-08T01:51:15;25.30;;;19.35;;
59468;SDS011;45277;52.768;18.262;2023-09-08T01:52:47;26.63;;;18.83;;
59468;SDS011;45277;52.768;18.262;2023-09-08T01:54:19;20.83;;;17.48;;
59468;SDS011;45277;52.768;18.262;2023-09-08T01:55:50;21.55;;;16.77;;
59468;SDS011;45277;52.768;18.262;2023-09-08T01:57:21;23.65;;;18.67;;
59468;SDS011;45277;52.768;18.262;2023-09-08T01:58:53;28.88;;;18.38;;
59468;SDS011;45277;52.768;18.262;2023-09-08T02:00:24;23.55;;;17.38;;
59468;SDS011;45277;52.768;18.262;2023-09-08T02:01:55;21.92;;;17.92;;
59468;SDS011;45277;52.768;18.262;2023-09-08T02:03:27;25.35;;;18.60;;
59468;SDS011;45277;52.768;18.262;2023-09-08T02:04:58;26.70;;;19.88;;
59468;SDS011;45277;52.768;18.262;2023-09-08T02:06:30;23.05;;;17.90;;
59468;SDS011;45277;52.768;18.262;2023-09-08T02:08:01;22.60;;;18.20;;
59468;SDS011;45277;52.768;18.262;2023-09-08T02:09:34;24.20;;;17.67;;
59468;SDS011;45277;52.768;18.262;2023-09-08T02:11:07;24.58;;;17.17;;
59468;SDS011;45277;52.768;18.262;2023-09-08T02:12:39;23.88;;;19.02;;
59468;SDS011;45277;52.768;18.262;2023-09-08T02:14:10;27.85;;;18.92;;
59468;SDS011;45277;52.768;18.262;2023-09-08T02:15:41;20.40;;;17.05;;
59468;SDS011;45277;52.768;18.262;2023-09-08T02:17:13;23.73;;;17.95;;
59468;SDS011;45277;52.768;18.262;2023-09-08T02:18:44;25.45;;;17.98;;
59468;SDS011;45277;52.768;18.262;2023-09-08T02:20:16;22.60;;;18.40;;
59468;SDS011;45277;52.768;18.262;2023-09-08T02:21:47;23.17;;;18.20;;
59468;SDS011;45277;52.768;18.262;2023-09-08T02:23:19;23.20;;;18.20;;
59468;SDS011;45277;52.768;18.262;2023-09-08T02:24:50;24.98;;;20.35;;
59468;SDS011;45277;52.768;18.262;2023-09-08T02:26:22;30.00;;;18.58;;
59468;SDS011;45277;52.768;18.262;2023-09-08T02:27:54;27.13;;;18.50;;
59468;SDS011;45277;52.768;18.262;2023-09-08T02:29:25;24.27;;;19.02;;
59468;SDS011;45277;52.768;18.262;2023-09-08T02:30:57;22.48;;;17.83;;
59468;SDS011;45277;52.768;18.262;2023-09-08T02:32:28;21.48;;;16.98;;
59468;SDS011;45277;52.768;18.262;2023-09-08T02:33:59;21.63;;;17.02;;
59468;SDS011;45277;52.768;18.262;2023-09-08T02:35:35;23.65;;;18.48;;
59468;SDS011;45277;52.768;18.262;2023-09-08T02:37:08;27.60;;;17.73;;
59468;SDS011;45277;52.768;18.262;2023-09-08T02:38:39;21.60;;;17.08;;
59468;SDS011;45277;52.768;18.262;2023-09-08T02:40:11;19.90;;;16.83;;
59468;SDS011;45277;52.768;18.262;2023-09-08T02:41:42;19.63;;;16.80;;
59468;SDS011;45277;52.768;18.262;2023-09-08T02:43:14;20.45;;;17.02;;
59468;SDS011;45277;52.768;18.262;2023-09-08T02:44:45;18.95;;;15.95;;
59468;SDS011;45277;52.768;18.262;2023-09-08T02:46:16;20.25;;;16.30;;
59468;SDS011;45277;52.768;18.262;2023-09-08T02:47:48;21.42;;;17.55;;
59468;SDS011;45277;52.768;18.262;2023-09-08T02:49:19;21.92;;;16.63;;
59468;SDS011;45277;52.768;18.262;2023-09-08T02:50:51;23.10;;;17.80;;
59468;SDS011;45277;52.768;18.262;2023-09-08T02:52:24;22.50;;;16.60;;
59468;SDS011;45277;52.768;18.262;2023-09-08T02:53:55;24.38;;;16.15;;
59468;SDS011;45277;52.768;18.262;2023-09-08T02:55:27;20.77;;;16.30;;
59468;SDS011;45277;52.768;18.262;2023-09-08T02:56:58;20.10;;;17.48;;
59468;SDS011;45277;52.768;18.262;2023-09-08T02:58:29;20.45;;;16.48;;
59468;SDS011;45277;52.768;18.262;2023-09-08T03:00:04;18.17;;;15.35;;
59468;SDS011;45277;52.768;18.262;2023-09-08T03:01:36;19.23;;;16.55;;
59468;SDS011;45277;52.768;18.262;2023-09-08T03:03:07;19.00;;;15.90;;
59468;SDS011;45277;52.768;18.262;2023-09-08T03:04:39;20.80;;;16.25;;
59468;SDS011;45277;52.768;18.262;2023-09-08T03:06:10;24.60;;;17.10;;
59468;SDS011;45277;52.768;18.262;2023-09-08T03:07:42;25.38;;;17.67;;
59468;SDS011;45277;52.768;18.262;2023-09-08T03:09:13;20.30;;;15.60;;
59468;SDS011;45277;52.768;18.262;2023-09-08T03:10:45;22.08;;;16.98;;
59468;SDS011;45277;52.768;18.262;2023-09-08T03:12:16;21.75;;;17.20;;
59468;SDS011;45277;52.768;18.262;2023-09-08T03:13:47;24.98;;;16.73;;
59468;SDS011;45277;52.768;18.262;2023-09-08T03:15:19;20.48;;;17.05;;
59468;SDS011;45277;52.768;18.262;2023-09-08T03:16:50;20.88;;;16.98;;
59468;SDS011;45277;52.768;18.262;2023-09-08T03:18:22;23.92;;;17.95;;
59468;SDS011;45277;52.768;18.262;2023-09-08T03:19:54;23.45;;;18.70;;
59468;SDS011;45277;52.768;18.262;2023-09-08T03:21:25;21.88;;;16.83;;
59468;SDS011;45277;52.768;18.262;2023-09-08T03:22:56;22.80;;;16.65;;
59468;SDS011;45277;52.768;18.262;2023-09-08T03:24:28;21.83;;;17.33;;
59468;SDS011;45277;52.768;18.262;2023-09-08T03:25:59;24.40;;;17.83;;
59468;SDS011;45277;52.768;18.262;2023-09-08T03:27:30;25.80;;;18.48;;
59468;SDS011;45277;52.768;18.262;2023-09-08T03:29:02;24.08;;;18.23;;
59468;SDS011;45277;52.768;18.262;2023-09-08T03:30:33;21.83;;;17.67;;
59468;SDS011;45277;52.768;18.262;2023-09-08T03:32:05;23.85;;;18.08;;
59468;SDS011;45277;52.768;18.262;2023-09-08T03:33:36;24.13;;;19.13;;
59468;SDS011;45277;52.768;18.262;2023-09-08T03:35:08;25.17;;;17.92;;
59468;SDS011;45277;52.768;18.262;2023-09-08T03:36:39;23.73;;;18.10;;
59468;SDS011;45277;52.768;18.262;2023-09-08T03:38:11;20.48;;;16.38;;
59468;SDS011;45277;52.768;18.262;2023-09-08T03:39:42;22.67;;;17.00;;
59468;SDS011;45277;52.768;18.262;2023-09-08T03:41:14;20.77;;;17.77;;
59468;SDS011;45277;52.768;18.262;2023-09-08T03:42:45;22.42;;;17.10;;
59468;SDS011;45277;52.768;18.262;2023-09-08T03:44:17;23.00;;;17.08;;
59468;SDS011;45277;52.768;18.262;2023-09-08T03:45:48;20.75;;;17.55;;
59468;SDS011;45277;52.768;18.262;2023-09-08T03:47:20;23.70;;;17.30;;
59468;SDS011;45277;52.768;18.262;2023-09-08T03:48:51;23.00;;;16.80;;
59468;SDS011;45277;52.768;18.262;2023-09-08T03:50:24;20.13;;;16.90;;
59468;SDS011;45277;52.768;18.262;2023-09-08T03:51:56;21.05;;;17.05;;
59468;SDS011;45277;52.768;18.262;2023-09-08T03:53:28;20.92;;;17.02;;
59468;SDS011;45277;52.768;18.262;2023-09-08T03:54:59;23.00;;;17.15;;
59468;SDS011;45277;52.768;18.262;2023-09-08T03:56:31;24.60;;;17.15;;
59468;SDS011;45277;52.768;18.262;2023-09-08T03:58:02;24.13;;;15.75;;
59468;SDS011;45277;52.768;18.262;2023-09-08T03:59:34;18.65;;;15.63;;
59468;SDS011;45277;52.768;18.262;2023-09-08T04:01:05;19.90;;;16.23;;
59468;SDS011;45277;52.768;18.262;2023-09-08T04:02:36;23.60;;;16.67;;
59468;SDS011;45277;52.768;18.262;2023-09-08T04:04:08;21.52;;;17.58;;
59468;SDS011;45277;52.768;18.262;2023-09-08T04:05:39;23.33;;;16.95;;
59468;SDS011;45277;52.768;18.262;2023-09-08T04:07:10;19.98;;;15.70;;
59468;SDS011;45277;52.768;18.262;2023-09-08T04:08:42;20.08;;;16.13;;
59468;SDS011;45277;52.768;18.262;2023-09-08T04:10:13;19.50;;;15.60;;
59468;SDS011;45277;52.768;18.262;2023-09-08T04:11:45;23.90;;;16.27;;
59468;SDS011;45277;52.768;18.262;2023-09-08T04:13:16;22.98;;;16.60;;
59468;SDS011;45277;52.768;18.262;2023-09-08T04:14:48;25.30;;;16.55;;
59468;SDS011;45277;52.768;18.262;2023-09-08T04:16:19;19.95;;;15.73;;
59468;SDS011;45277;52.768;18.262;2023-09-08T04:17:51;19.42;;;16.05;;
59468;SDS011;45277;52.768;18.262;2023-09-08T04:19:22;20.88;;;16.13;;
59468;SDS011;45277;52.768;18.262;2023-09-08T04:20:54;21.90;;;15.63;;
59468;SDS011;45277;52.768;18.262;2023-09-08T04:22:25;27.90;;;16.40;;
59468;SDS011;45277;52.768;18.262;2023-09-08T04:23:57;34.65;;;17.33;;
59468;SDS011;45277;52.768;18.262;2023-09-08T04:25:28;26.60;;;18.08;;
59468;SDS011;45277;52.768;18.262;2023-09-08T04:27:00;26.00;;;17.52;;
59468;SDS011;45277;52.768;18.262;2023-09-08T04:28:31;31.75;;;19.88;;
59468;SDS011;45277;52.768;18.262;2023-09-08T04:30:04;28.63;;;19.50;;
59468;SDS011;45277;52.768;18.262;2023-09-08T04:31:36;34.33;;;17.80;;
59468;SDS011;45277;52.768;18.262;2023-09-08T04:33:08;25.95;;;17.40;;
59468;SDS011;45277;52.768;18.262;2023-09-08T04:34:39;22.15;;;17.48;;
59468;SDS011;45277;52.768;18.262;2023-09-08T04:36:12;25.45;;;18.55;;
59468;SDS011;45277;52.768;18.262;2023-09-08T04:37:44;20.80;;;16.27;;
59468;SDS011;45277;52.768;18.262;2023-09-08T04:39:15;24.17;;;17.58;;
59468;SDS011;45277;52.768;18.262;2023-09-08T04:40:46;53.50;;;17.88;;
59468;SDS011;45277;52.768;18.262;2023-09-08T04:42:18;40.33;;;17.30;;
59468;SDS011;45277;52.768;18.262;2023-09-08T04:43:49;29.27;;;16.67;;
59468;SDS011;45277;52.768;18.262;2023-09-08T04:45:21;39.03;;;18.80;;
59468;SDS011;45277;52.768;18.262;2023-09-08T04:46:53;39.95;;;17.98;;
59468;SDS011;45277;52.768;18.262;2023-09-08T04:48:24;42.53;;;18.15;;
59468;SDS011;45277;52.768;18.262;2023-09-08T04:49:56;25.83;;;16.52;;
59468;SDS011;45277;52.768;18.262;2023-09-08T04:51:27;35.47;;;17.55;;
59468;SDS011;45277;52.768;18.262;2023-09-08T04:52:59;25.83;;;18.05;;
59468;SDS011;45277;52.768;18.262;2023-09-08T04:54:30;25.88;;;16.00;;
59468;SDS011;45277;52.768;18.262;2023-09-08T04:56:02;29.90;;;17.40;;
59468;SDS011;45277;52.768;18.262;2023-09-08T04:57:34;26.13;;;15.55;;
59468;SDS011;45277;52.768;18.262;2023-09-08T04:59:05;40.22;;;17.90;;
59468;SDS011;45277;52.768;18.262;2023-09-08T05:00:37;26.40;;;16.90;;
59468;SDS011;45277;52.768;18.262;2023-09-08T05:02:11;27.10;;;17.50;;
59468;SDS011;45277;52.768;18.262;2023-09-08T05:03:43;28.23;;;18.73;;
59468;SDS011;45277;52.768;18.262;2023-09-08T05:05:16;23.58;;;16.48;;
59468;SDS011;45277;52.768;18.262;2023-09-08T05:06:47;25.33;;;16.02;;
59468;SDS011;45277;52.768;18.262;2023-09-08T05:08:19;25.00;;;16.92;;
59468;SDS011;45277;52.768;18.262;2023-09-08T05:09:50;23.88;;;17.13;;
59468;SDS011;45277;52.768;18.262;2023-09-08T05:11:22;24.52;;;17.80;;
59468;SDS011;45277;52.768;18.262;2023-09-08T05:12:54;25.35;;;17.45;;
59468;SDS011;45277;52.768;18.262;2023-09-08T05:14:25;25.92;;;17.27;;
59468;SDS011;45277;52.768;18.262;2023-09-08T05:15:57;21.65;;;16.08;;
59468;SDS011;45277;52.768;18.262;2023-09-08T05:17:31;24.33;;;17.48;;
59468;SDS011;45277;52.768;18.262;2023-09-08T05:19:03;24.52;;;17.75;;
59468;SDS011;45277;52.768;18.262;2023-09-08T05:20:34;26.33;;;18.13;;
59468;SDS011;45277;52.768;18.262;2023-09-08T05:22:06;27.02;;;17.35;;
59468;SDS011;45277;52.768;18.262;2023-09-08T05:23:37;23.85;;;16.85;;
59468;SDS011;45277;52.768;18.262;2023-09-08T05:25:09;24.17;;;18.60;;
59468;SDS011;45277;52.768;18.262;2023-09-08T05:26:41;22.38;;;16.48;;
59468;SDS011;45277;52.768;18.262;2023-09-08T05:28:12;20.45;;;16.45;;
59468;SDS011;45277;52.768;18.262;2023-09-08T05:29:45;26.00;;;18.77;;
59468;SDS011;45277;52.768;18.262;2023-09-08T05:31:23;23.25;;;17.02;;
59468;SDS011;45277;52.768;18.262;2023-09-08T05:32:56;22.67;;;17.70;;
59468;SDS011;45277;52.768;18.262;2023-09-08T05:34:28;22.65;;;16.33;;
59468;SDS011;45277;52.768;18.262;2023-09-08T05:35:59;24.05;;;17.05;;
59468;SDS011;45277;52.768;18.262;2023-09-08T05:37:31;29.67;;;16.08;;
59468;SDS011;45277;52.768;18.262;2023-09-08T05:39:02;21.30;;;15.98;;
59468;SDS011;45277;52.768;18.262;2023-09-08T05:40:34;19.65;;;16.42;;
59468;SDS011;45277;52.768;18.262;2023-09-08T05:42:06;19.77;;;14.77;;
59468;SDS011;45277;52.768;18.262;2023-09-08T05:43:37;22.33;;;15.95;;
59468;SDS011;45277;52.768;18.262;2023-09-08T05:45:08;21.98;;;15.32;;
59468;SDS011;45277;52.768;18.262;2023-09-08T05:46:40;20.17;;;14.23;;
59468;SDS011;45277;52.768;18.262;2023-09-08T05:48:11;22.63;;;14.48;;
59468;SDS011;45277;52.768;18.262;2023-09-08T05:49:43;21.65;;;13.80;;
59468;SDS011;45277;52.768;18.262;2023-09-08T05:51:14;20.83;;;14.32;;
59468;SDS011;45277;52.768;18.262;2023-09-08T05:52:46;21.10;;;14.35;;
59468;SDS011;45277;52.768;18.262;2023-09-08T05:54:17;19.60;;;14.02;;
59468;SDS011;45277;52.768;18.262;2023-09-08T05:55:48;20.58;;;13.50;;
59468;SDS011;45277;52.768;18.262;2023-09-08T05:57:20;16.25;;;12.63;;
59468;SDS011;45277;52.768;18.262;2023-09-08T05:58:51;19.08;;;13.35;;
59468;SDS011;45277;52.768;18.262;2023-09-08T06:00:23;16.33;;;13.07;;
59468;SDS011;45277;52.768;18.262;2023-09-08T06:01:55;15.93;;;13.02;;
59468;SDS011;45277;52.768;18.262;2023-09-08T06:03:26;21.13;;;12.77;;
59468;SDS011;45277;52.768;18.262;2023-09-08T06:04:57;16.80;;;12.50;;
59468;SDS011;45277;52.768;18.262;2023-09-08T06:06:29;17.88;;;13.85;;
59468;SDS011;45277;52.768;18.262;2023-09-08T06:08:00;17.52;;;13.05;;
59468;SDS011;45277;52.768;18.262;2023-09-08T06:09:32;16.30;;;12.95;;
59468;SDS011;45277;52.768;18.262;2023-09-08T06:11:03;17.02;;;12.70;;
59468;SDS011;45277;52.768;18.262;2023-09-08T06:12:34;20.75;;;13.23;;
59468;SDS011;45277;52.768;18.262;2023-09-08T06:14:06;17.13;;;12.52;;
59468;SDS011;45277;52.768;18.262;2023-09-08T06:15:37;14.85;;;11.68;;
59468;SDS011;45277;52.768;18.262;2023-09-08T06:17:09;14.15;;;11.23;;
59468;SDS011;45277;52.768;18.262;2023-09-08T06:18:40;14.88;;;12.02;;
59468;SDS011;45277;52.768;18.262;2023-09-08T06:20:13;16.30;;;11.93;;
59468;SDS011;45277;52.768;18.262;2023-09-08T06:21:44;20.95;;;12.88;;
59468;SDS011;45277;52.768;18.262;2023-09-08T06:23:16;24.65;;;12.60;;
59468;SDS011;45277;52.768;18.262;2023-09-08T06:24:50;21.75;;;12.73;;
59468;SDS011;45277;52.768;18.262;2023-09-08T06:26:22;17.05;;;13.43;;
59468;SDS011;45277;52.768;18.262;2023-09-08T06:27:53;16.48;;;11.13;;
59468;SDS011;45277;52.768;18.262;2023-09-08T06:29:25;15.85;;;11.73;;
59468;SDS011;45277;52.768;18.262;2023-09-08T06:30:56;14.27;;;11.63;;
59468;SDS011;45277;52.768;18.262;2023-09-08T06:32:28;14.10;;;10.60;;
59468;SDS011;45277;52.768;18.262;2023-09-08T06:34:00;17.27;;;11.48;;
59468;SDS011;45277;52.768;18.262;2023-09-08T06:35:31;18.40;;;11.43;;
59468;SDS011;45277;52.768;18.262;2023-09-08T06:37:04;12.75;;;10.77;;
59468;SDS011;45277;52.768;18.262;2023-09-08T06:38:36;15.05;;;10.90;;
59468;SDS011;45277;52.768;18.262;2023-09-08T06:40:07;12.40;;;10.40;;
59468;SDS011;45277;52.768;18.262;2023-09-08T06:41:38;17.75;;;11.05;;
59468;SDS011;45277;52.768;18.262;2023-09-08T06:43:10;15.70;;;10.93;;
59468;SDS011;45277;52.768;18.262;2023-09-08T06:44:41;15.80;;;11.48;;
59468;SDS011;45277;52.768;18.262;2023-09-08T06:46:13;15.95;;;11.20;;
59468;SDS011;45277;52.768;18.262;2023-09-08T06:47:46;14.05;;;9.30;;
59468;SDS011;45277;52.768;18.262;2023-09-08T06:49:17;15.15;;;10.48;;
59468;SDS011;45277;52.768;18.262;2023-09-08T06:50:48;15.20;;;11.05;;
59468;SDS011;45277;52.768;18.262;2023-09-08T06:52:25;12.65;;;9.98;;
59468;SDS011;45277;52.768;18.262;2023-09-08T06:53:56;12.35;;;10.90;;
59468;SDS011;45277;52.768;18.262;2023-09-08T06:55:28;16.73;;;10.38;;
59468;SDS011;45277;52.768;18.262;2023-09-08T06:57:00;12.98;;;9.55;;
59468;SDS011;45277;52.768;18.262;2023-09-08T06:58:32;11.25;;;9.23;;
59468;SDS011;45277;52.768;18.262;2023-09-08T07:00:04;13.77;;;9.77;;
59468;SDS011;45277;52.768;18.262;2023-09-08T07:01:37;16.02;;;10.18;;
59468;SDS011;45277;52.768;18.262;2023-09-08T07:03:09;16.20;;;9.65;;
59468;SDS011;45277;52.768;18.262;2023-09-08T07:04:40;17.30;;;10.40;;
59468;SDS011;45277;52.768;18.262;2023-09-08T07:06:12;14.10;;;10.70;;
59468;SDS011;45277;52.768;18.262;2023-09-08T07:07:43;12.93;;;10.45;;
59468;SDS011;45277;52.768;18.262;2023-09-08T07:09:15;16.30;;;10.43;;
59468;SDS011;45277;52.768;18.262;2023-09-08T07:10:51;14.20;;;10.85;;
59468;SDS011;45277;52.768;18.262;2023-09-08T07:12:24;14.25;;;9.85;;
59468;SDS011;45277;52.768;18.262;2023-09-08T07:13:56;13.02;;;10.48;;
59468;SDS011;45277;52.768;18.262;2023-09-08T07:15:27;14.02;;;9.93;;
59468;SDS011;45277;52.768;18.262;2023-09-08T07:16:59;16.60;;;10.02;;
59468;SDS011;45277;52.768;18.262;2023-09-08T07:18:31;14.05;;;9.88;;
59468;SDS011;45277;52.768;18.262;2023-09-08T07:20:06;15.75;;;10.18;;
59468;SDS011;45277;52.768;18.262;2023-09-08T07:21:38;12.73;;;9.65;;
59468;SDS011;45277;52.768;18.262;2023-09-08T07:23:09;25.17;;;11.20;;
59468;SDS011;45277;52.768;18.262;2023-09-08T07:24:41;12.52;;;9.25;;
59468;SDS011;45277;52.768;18.262;2023-09-08T07:26:13;15.93;;;9.25;;
59468;SDS011;45277;52.768;18.262;2023-09-08T07:27:44;14.77;;;9.65;;
59468;SDS011;45277;52.768;18.262;2023-09-08T07:29:16;20.70;;;9.88;;
59468;SDS011;45277;52.768;18.262;2023-09-08T07:30:48;14.05;;;8.65;;
59468;SDS011;45277;52.768;18.262;2023-09-08T07:32:19;17.73;;;9.20;;
59468;SDS011;45277;52.768;18.262;2023-09-08T07:33:51;12.45;;;8.32;;
59468;SDS011;45277;52.768;18.262;2023-09-08T07:35:22;12.90;;;8.18;;
59468;SDS011;45277;52.768;18.262;2023-09-08T07:36:54;14.85;;;7.90;;
59468;SDS011;45277;52.768;18.262;2023-09-08T07:38:26;11.50;;;8.13;;
59468;SDS011;45277;52.768;18.262;2023-09-08T07:39:57;14.38;;;7.82;;
59468;SDS011;45277;52.768;18.262;2023-09-08T07:41:29;9.88;;;7.57;;
59468;SDS011;45277;52.768;18.262;2023-09-08T07:43:02;14.02;;;7.68;;
59468;SDS011;45277;52.768;18.262;2023-09-08T07:44:33;10.60;;;6.68;;
59468;SDS011;45277;52.768;18.262;2023-09-08T07:46:05;8.43;;;6.38;;
59468;SDS011;45277;52.768;18.262;2023-09-08T07:47:36;11.35;;;6.45;;
59468;SDS011;45277;52.768;18.262;2023-09-08T07:49:09;9.82;;;6.65;;
59468;SDS011;45277;52.768;18.262;2023-09-08T07:50:40;11.55;;;7.45;;
59468;SDS011;45277;52.768;18.262;2023-09-08T07:52:12;7.90;;;5.55;;
59468;SDS011;45277;52.768;18.262;2023-09-08T07:53:44;7.78;;;5.80;;
59468;SDS011;45277;52.768;18.262;2023-09-08T07:55:15;8.50;;;6.13;;
59468;SDS011;45277;52.768;18.262;2023-09-08T07:56:47;6.75;;;5.82;;
59468;SDS011;45277;52.768;18.262;2023-09-08T07:58:18;9.63;;;5.97;;
59468;SDS011;45277;52.768;18.262;2023-09-08T07:59:50;9.27;;;5.95;;
59468;SDS011;45277;52.768;18.262;2023-09-08T08:01:21;9.70;;;6.28;;
59468;SDS011;45277;52.768;18.262;2023-09-08T08:02:54;9.23;;;6.82;;
59468;SDS011;45277;52.768;18.262;2023-09-08T08:04:27;21.25;;;8.10;;
59468;SDS011;45277;52.768;18.262;2023-09-08T08:05:59;9.38;;;5.85;;
59468;SDS011;45277;52.768;18.262;2023-09-08T08:07:30;11.45;;;6.43;;
59468;SDS011;45277;52.768;18.262;2023-09-08T08:09:02;10.60;;;5.45;;
59468;SDS011;45277;52.768;18.262;2023-09-08T08:10:34;7.05;;;5.22;;
59468;SDS011;45277;52.768;18.262;2023-09-08T08:12:06;11.10;;;5.38;;
59468;SDS011;45277;52.768;18.262;2023-09-08T08:13:37;7.05;;;4.93;;
59468;SDS011;45277;52.768;18.262;2023-09-08T08:15:09;7.93;;;5.40;;
59468;SDS011;45277;52.768;18.262;2023-09-08T08:16:41;7.07;;;4.97;;
59468;SDS011;45277;52.768;18.262;2023-09-08T08:18:13;6.53;;;4.38;;
59468;SDS011;45277;52.768;18.262;2023-09-08T08:19:45;7.22;;;4.30;;
59468;SDS011;45277;52.768;18.262;2023-09-08T08:21:17;5.68;;;4.47;;
59468;SDS011;45277;52.768;18.262;2023-09-08T08:22:49;5.57;;;4.30;;
59468;SDS011;45277;52.768;18.262;2023-09-08T08:24:24;7.25;;;4.43;;
59468;SDS011;45277;52.768;18.262;2023-09-08T08:25:55;5.80;;;4.50;;
59468;SDS011;45277;52.768;18.262;2023-09-08T08:27:27;5.07;;;4.47;;
59468;SDS011;45277;52.768;18.262;2023-09-08T08:28:59;8.38;;;4.53;;
59468;SDS011;45277;52.768;18.262;2023-09-08T08:30:31;9.55;;;5.95;;
59468;SDS011;45277;52.768;18.262;2023-09-08T08:32:03;8.20;;;4.45;;
59468;SDS011;45277;52.768;18.262;2023-09-08T08:33:35;7.38;;;4.68;;
59468;SDS011;45277;52.768;18.262;2023-09-08T08:35:06;5.32;;;4.38;;
59468;SDS011;45277;52.768;18.262;2023-09-08T08:36:38;7.60;;;4.25;;
59468;SDS011;45277;52.768;18.262;2023-09-08T08:38:09;7.70;;;4.60;;
59468;SDS011;45277;52.768;18.262;2023-09-08T08:39:41;6.88;;;4.47;;
59468;SDS011;45277;52.768;18.262;2023-09-08T08:41:12;5.97;;;4.63;;
59468;SDS011;45277;52.768;18.262;2023-09-08T08:42:44;6.47;;;4.78;;
59468;SDS011;45277;52.768;18.262;2023-09-08T08:44:16;6.72;;;4.53;;
59468;SDS011;45277;52.768;18.262;2023-09-08T08:45:49;6.47;;;4.82;;
59468;SDS011;45277;52.768;18.262;2023-09-08T08:47:22;7.68;;;4.97;;
59468;SDS011;45277;52.768;18.262;2023-09-08T08:48:55;5.80;;;4.35;;
59468;SDS011;45277;52.768;18.262;2023-09-08T08:50:28;5.25;;;4.60;;
59468;SDS011;45277;52.768;18.262;2023-09-08T08:52:02;6.72;;;4.68;;
59468;SDS011;45277;52.768;18.262;2023-09-08T08:53:37;6.40;;;4.85;;